createdAt,value
2018-06-11T00:00:07.058Z,56.47
2018-06-11T00:01:06.843Z,56.30
2018-06-11T00:02:06.894Z,56.37
2018-06-11T00:03:06.912Z,56.47
2018-06-11T00:04:07.121Z,56.96
2018-06-11T00:05:06.977Z,56.96
2018-06-11T00:06:07.011Z,55.99
2018-06-11T00:07:07.299Z,56.67
2018-06-11T00:08:07.079Z,56.67
2018-06-11T00:09:07.118Z,56.47
2018-06-11T00:10:07.160Z,56.57
2018-06-11T00:11:07.209Z,56.67
2018-06-11T00:12:07.218Z,56.96
2018-06-11T00:13:07.524Z,56.76
2018-06-11T00:14:07.287Z,56.57
2018-06-11T00:15:07.826Z,56.76
2018-06-11T00:16:07.357Z,56.47
2018-06-11T00:17:07.389Z,56.67
2018-06-11T00:18:07.421Z,56.76
2018-06-11T00:19:07.707Z,56.47
2018-06-11T00:20:07.493Z,56.76
2018-06-11T00:21:07.525Z,56.67
2018-06-11T00:22:07.557Z,56.57
2018-06-11T00:23:07.595Z,56.67
2018-06-11T00:24:07.628Z,56.96
2018-06-11T00:25:07.914Z,57.44
2018-06-11T00:26:07.697Z,56.96
2018-06-11T00:27:07.727Z,56.76
2018-06-11T00:28:07.764Z,56.67
2018-06-11T00:29:07.801Z,56.86
2018-06-11T00:30:07.835Z,56.67
2018-06-11T00:31:08.163Z,57.44
2018-06-11T00:32:07.897Z,56.67
2018-06-11T00:33:07.935Z,57.25
2018-06-11T00:34:07.966Z,56.67
2018-06-11T00:35:08.002Z,56.57
2018-06-11T00:36:08.038Z,57.34
2018-06-11T00:37:08.320Z,57.34
2018-06-11T00:38:08.105Z,56.37
2018-06-11T00:39:08.137Z,56.76
2018-06-11T00:40:08.172Z,56.64
2018-06-11T00:41:08.506Z,56.64
2018-06-11T00:42:08.241Z,56.83
2018-06-11T00:43:08.531Z,57.03
2018-06-11T00:44:08.308Z,57.03
2018-06-11T00:45:08.351Z,56.54
2018-06-11T00:46:08.376Z,57.22
2018-06-11T00:47:08.415Z,57.03
2018-06-11T00:48:08.467Z,57.32
2018-06-11T00:49:08.781Z,57.12
2018-06-11T00:50:08.510Z,57.42
2018-06-11T00:51:08.547Z,57.22
2018-06-11T00:52:08.591Z,57.32
2018-06-11T00:53:08.613Z,57.42
2018-06-11T00:54:08.647Z,57.12
2018-06-11T00:55:08.933Z,57.22
2018-06-11T00:56:08.768Z,57.22
2018-06-11T00:57:08.748Z,57.32
2018-06-11T00:58:08.786Z,57.42
2018-06-11T00:59:08.821Z,57.32
2018-06-11T01:00:08.865Z,57.32
2018-06-11T01:01:09.138Z,57.12
2018-06-11T01:02:08.923Z,57.32
2018-06-11T01:03:08.953Z,57.32
2018-06-11T01:04:08.991Z,57.22
2018-06-11T01:05:09.072Z,57.22
2018-06-11T01:06:09.057Z,57.51
2018-06-11T01:07:09.419Z,57.51
2018-06-11T01:08:09.122Z,57.03
2018-06-11T01:09:09.159Z,57.42
2018-06-11T01:10:09.293Z,57.42
2018-06-11T01:11:09.229Z,57.90
2018-06-11T01:12:09.257Z,57.87
2018-06-11T01:13:09.296Z,57.51
2018-06-11T01:14:09.328Z,57.48
2018-06-11T01:15:09.364Z,57.48
2018-06-11T01:16:09.396Z,57.48
2018-06-11T01:17:09.441Z,57.68
2018-06-11T01:18:09.463Z,57.48
2018-06-11T01:19:09.800Z,57.58
2018-06-11T01:20:09.533Z,57.39
2018-06-11T01:21:09.561Z,57.58
2018-06-11T01:22:09.600Z,57.48
2018-06-11T01:23:09.631Z,57.58
2018-06-11T01:24:09.665Z,57.48
2018-06-11T01:25:09.946Z,58.16
2018-06-11T01:26:09.888Z,58.06
2018-06-11T01:27:09.765Z,57.87
2018-06-11T01:28:09.802Z,58.16
2018-06-11T01:29:09.832Z,58.16
2018-06-11T01:30:09.875Z,57.87
2018-06-11T01:31:09.926Z,58.16
2018-06-11T01:32:10.190Z,57.29
2018-06-11T01:33:09.970Z,57.48
2018-06-11T01:34:10.002Z,57.87
2018-06-11T01:35:10.032Z,57.97
2018-06-11T01:36:10.073Z,57.78
2018-06-11T01:37:10.102Z,57.87
2018-06-11T01:38:10.145Z,57.97
2018-06-11T01:39:10.473Z,57.94
2018-06-11T01:40:10.206Z,58.16
2018-06-11T01:41:10.291Z,57.78
2018-06-11T01:42:10.271Z,57.84
2018-06-11T01:43:10.344Z,57.78
2018-06-11T01:44:10.345Z,57.97
2018-06-11T01:45:10.372Z,58.52
2018-06-11T01:46:10.656Z,58.16
2018-06-11T01:47:10.438Z,58.65
2018-06-11T01:48:10.478Z,57.94
2018-06-11T01:49:10.509Z,57.75
2018-06-11T01:50:10.539Z,57.94
2018-06-11T01:51:10.572Z,58.52
2018-06-11T01:52:10.608Z,58.62
2018-06-11T01:53:10.890Z,57.94
2018-06-11T01:54:10.679Z,58.33
2018-06-11T01:55:10.762Z,58.14
2018-06-11T01:56:10.998Z,58.14
2018-06-11T01:57:10.773Z,58.42
2018-06-11T01:58:10.811Z,58.04
2018-06-11T01:59:10.840Z,58.52
2018-06-11T02:00:11.126Z,58.81
2018-06-11T02:01:10.932Z,58.52
2018-06-11T02:02:10.943Z,58.52
2018-06-11T02:03:10.980Z,58.33
2018-06-11T02:04:11.010Z,58.62
2018-06-11T02:05:11.047Z,58.62
2018-06-11T02:06:11.080Z,57.94
2018-06-11T02:07:11.411Z,58.72
2018-06-11T02:08:11.142Z,58.52
2018-06-11T02:09:11.176Z,57.94
2018-06-11T02:10:11.210Z,58.04
2018-06-11T02:11:11.248Z,58.42
2018-06-11T02:12:11.325Z,58.52
2018-06-11T02:13:11.310Z,58.33
2018-06-11T02:14:11.594Z,58.52
2018-06-11T02:15:11.379Z,58.52
2018-06-11T02:16:11.424Z,58.62
2018-06-11T02:17:11.444Z,58.42
2018-06-11T02:18:11.480Z,58.62
2018-06-11T02:19:11.510Z,58.42
2018-06-11T02:20:11.544Z,58.33
2018-06-11T02:21:11.882Z,58.81
2018-06-11T02:22:11.620Z,58.33
2018-06-11T02:23:11.647Z,57.94
2018-06-11T02:24:11.710Z,58.04
2018-06-11T02:25:11.713Z,58.42
2018-06-11T02:26:11.749Z,58.14
2018-06-11T02:27:11.779Z,58.49
2018-06-11T02:28:12.127Z,58.39
2018-06-11T02:29:11.847Z,58.30
2018-06-11T02:30:11.885Z,58.30
2018-06-11T02:31:11.928Z,58.39
2018-06-11T02:32:11.952Z,58.30
2018-06-11T02:33:11.982Z,58.59
2018-06-11T02:34:12.016Z,58.78
2018-06-11T02:35:12.297Z,58.59
2018-06-11T02:36:12.078Z,58.69
2018-06-11T02:37:12.158Z,58.39
2018-06-11T02:38:12.146Z,58.69
2018-06-11T02:39:12.182Z,59.17
2018-06-11T02:40:12.213Z,58.78
2018-06-11T02:41:12.266Z,58.69
2018-06-11T02:42:12.582Z,59.17
2018-06-11T02:43:12.330Z,59.27
2018-06-11T02:44:12.349Z,58.88
2018-06-11T02:45:12.381Z,59.36
2018-06-11T02:46:12.467Z,59.27
2018-06-11T02:47:12.452Z,59.36
2018-06-11T02:48:12.480Z,59.07
2018-06-11T02:49:12.770Z,58.88
2018-06-11T02:50:12.546Z,58.88
2018-06-11T02:51:12.607Z,58.98
2018-06-11T02:52:12.660Z,59.27
2018-06-11T02:53:12.725Z,59.27
2018-06-11T02:54:12.677Z,58.98
2018-06-11T02:55:13.016Z,58.98
2018-06-11T02:56:12.743Z,59.56
2018-06-11T02:57:12.820Z,59.07
2018-06-11T02:58:12.820Z,58.88
2018-06-11T02:59:12.864Z,58.78
2018-06-11T03:00:13.127Z,59.27
2018-06-11T03:01:13.160Z,58.88
2018-06-11T03:02:12.963Z,59.46
2018-06-11T03:03:13.004Z,58.98
2018-06-11T03:04:13.023Z,58.95
2018-06-11T03:05:13.049Z,58.95
2018-06-11T03:06:13.085Z,58.85
2018-06-11T03:07:13.413Z,58.85
2018-06-11T03:08:13.184Z,59.23
2018-06-11T03:09:13.213Z,58.95
2018-06-11T03:10:13.292Z,58.78
2018-06-11T03:11:13.247Z,58.85
2018-06-11T03:12:13.288Z,58.85
2018-06-11T03:13:13.619Z,60.40
2018-06-11T03:14:13.347Z,60.50
2018-06-11T03:15:13.429Z,60.98
2018-06-11T03:16:13.432Z,61.18
2018-06-11T03:17:13.445Z,61.01
2018-06-11T03:18:13.482Z,61.40
2018-06-11T03:19:13.808Z,61.69
2018-06-11T03:20:13.566Z,61.11
2018-06-11T03:21:13.731Z,61.40
2018-06-11T03:22:13.608Z,61.01
2018-06-11T03:23:13.640Z,61.21
2018-06-11T03:24:13.674Z,61.30
2018-06-11T03:25:13.959Z,61.11
2018-06-11T03:26:13.745Z,61.11
2018-06-11T03:27:13.776Z,61.21
2018-06-11T03:28:13.807Z,60.94
2018-06-11T03:29:13.841Z,61.04
2018-06-11T03:30:13.874Z,60.55
2018-06-11T03:31:14.162Z,60.75
2018-06-11T03:32:13.940Z,60.55
2018-06-11T03:33:13.986Z,60.55
2018-06-11T03:34:14.009Z,60.75
2018-06-11T03:35:14.052Z,60.46
2018-06-11T03:36:14.075Z,60.85
2018-06-11T03:37:14.409Z,60.46
2018-06-11T03:38:14.141Z,60.55
2018-06-11T03:39:14.185Z,60.46
2018-06-11T03:40:14.313Z,60.55
2018-06-11T03:41:14.245Z,60.27
2018-06-11T03:42:14.276Z,60.17
2018-06-11T03:43:14.566Z,59.97
2018-06-11T03:44:14.367Z,60.07
2018-06-11T03:45:14.380Z,60.00
2018-06-11T03:46:14.428Z,60.20
2018-06-11T03:47:14.444Z,60.36
2018-06-11T03:48:14.477Z,59.97
2018-06-11T03:49:14.763Z,60.10
2018-06-11T03:50:14.548Z,60.20
2018-06-11T03:51:14.578Z,60.20
2018-06-11T03:52:14.668Z,60.30
2018-06-11T03:53:14.760Z,60.00
2018-06-11T03:54:14.877Z,60.20
2018-06-11T03:55:15.015Z,59.91
2018-06-11T03:56:14.799Z,59.81
2018-06-11T03:57:14.781Z,59.71
2018-06-11T03:58:14.822Z,59.81
2018-06-11T03:59:14.848Z,59.71
2018-06-11T04:00:15.033Z,59.71
2018-06-11T04:01:15.176Z,59.81
2018-06-11T04:02:14.956Z,59.71
2018-06-11T04:03:14.990Z,59.52
2018-06-11T04:04:15.021Z,59.81
2018-06-11T04:05:15.054Z,59.71
2018-06-11T04:06:15.085Z,59.81
2018-06-11T04:07:15.372Z,59.91
2018-06-11T04:08:15.153Z,59.91
2018-06-11T04:09:15.194Z,59.91
2018-06-11T04:10:15.222Z,60.13
2018-06-11T04:11:15.403Z,60.00
2018-06-11T04:12:15.287Z,60.00
2018-06-11T04:13:15.323Z,60.10
2018-06-11T04:14:15.657Z,60.00
2018-06-11T04:15:15.393Z,59.71
2018-06-11T04:16:15.424Z,59.81
2018-06-11T04:17:15.459Z,60.10
2018-06-11T04:18:15.503Z,59.91
2018-06-11T04:19:15.532Z,60.03
2018-06-11T04:20:15.575Z,59.94
2018-06-11T04:21:15.855Z,59.74
2018-06-11T04:22:15.635Z,59.94
2018-06-11T04:23:15.666Z,59.74
2018-06-11T04:24:15.698Z,59.94
2018-06-11T04:25:15.745Z,59.94
2018-06-11T04:26:15.767Z,59.84
2018-06-11T04:27:15.803Z,60.03
2018-06-11T04:28:16.094Z,59.74
2018-06-11T04:29:15.866Z,59.84
2018-06-11T04:30:15.907Z,59.94
2018-06-11T04:31:15.933Z,59.74
2018-06-11T04:32:15.981Z,60.13
2018-06-11T04:33:16.006Z,59.55
2018-06-11T04:34:16.039Z,59.55
2018-06-11T04:35:16.369Z,59.45
2018-06-11T04:36:16.107Z,59.45
2018-06-11T04:37:16.148Z,59.55
2018-06-11T04:38:16.174Z,59.55
2018-06-11T04:39:16.210Z,59.74
2018-06-11T04:40:16.289Z,59.55
2018-06-11T04:41:16.290Z,59.94
2018-06-11T04:42:16.562Z,59.94
2018-06-11T04:43:16.566Z,59.36
2018-06-11T04:44:16.394Z,59.64
2018-06-11T04:45:16.466Z,59.55
2018-06-11T04:46:16.445Z,59.45
2018-06-11T04:47:16.488Z,59.45
2018-06-11T04:48:16.514Z,59.06
2018-06-11T04:49:16.872Z,58.97
2018-06-11T04:50:16.587Z,59.16
2018-06-11T04:51:16.620Z,59.16
2018-06-11T04:52:16.656Z,59.16
2018-06-11T04:53:16.792Z,59.16
2018-06-11T04:54:16.726Z,59.16
2018-06-11T04:55:16.754Z,59.26
2018-06-11T04:56:17.108Z,59.26
2018-06-11T04:57:16.824Z,59.06
2018-06-11T04:58:16.866Z,59.26
2018-06-11T04:59:16.890Z,59.06
2018-06-11T05:00:16.925Z,59.26
2018-06-11T05:01:16.987Z,59.06
2018-06-11T05:02:17.018Z,59.09
2018-06-11T05:03:17.290Z,58.97
2018-06-11T05:04:17.073Z,59.19
2018-06-11T05:05:17.102Z,59.09
2018-06-11T05:06:17.142Z,59.00
2018-06-11T05:07:17.396Z,59.00
2018-06-11T05:08:17.235Z,59.38
2018-06-11T05:09:17.423Z,59.38
2018-06-11T05:10:17.698Z,59.38
2018-06-11T05:11:17.319Z,59.19
2018-06-11T05:12:17.336Z,59.48
2018-06-11T05:13:17.404Z,59.38
2018-06-11T05:14:17.409Z,59.09
2018-06-11T05:15:17.438Z,59.09
2018-06-11T05:16:17.473Z,59.28
2018-06-11T05:17:17.832Z,59.09
2018-06-11T05:18:17.543Z,58.70
2018-06-11T05:19:17.786Z,58.90
2018-06-11T05:20:17.618Z,59.09
2018-06-11T05:21:17.648Z,59.00
2018-06-11T05:22:17.686Z,59.00
2018-06-11T05:23:17.715Z,59.00
2018-06-11T05:24:18.055Z,59.00
2018-06-11T05:25:17.787Z,59.00
2018-06-11T05:26:17.825Z,59.09
2018-06-11T05:27:17.848Z,58.90
2018-06-11T05:28:17.892Z,59.19
2018-06-11T05:29:17.920Z,59.09
2018-06-11T05:30:17.954Z,59.09
2018-06-11T05:31:18.410Z,59.00
2018-06-11T05:32:18.051Z,59.00
2018-06-11T05:33:18.129Z,59.00
2018-06-11T05:34:18.098Z,59.77
2018-06-11T05:35:18.189Z,59.67
2018-06-11T05:36:18.203Z,59.09
2018-06-11T05:37:18.759Z,59.28
2018-06-11T05:38:18.232Z,59.28
2018-06-11T05:39:18.263Z,59.09
2018-06-11T05:40:18.336Z,59.28
2018-06-11T05:41:18.355Z,59.09
2018-06-11T05:42:18.671Z,59.09
2018-06-11T05:43:18.701Z,59.19
2018-06-11T05:44:18.502Z,59.97
2018-06-11T05:45:18.494Z,59.38
2018-06-11T05:46:18.506Z,59.58
2018-06-11T05:47:18.541Z,58.90
2018-06-11T05:48:18.589Z,59.28
2018-06-11T05:49:18.863Z,59.28
2018-06-11T05:50:18.847Z,59.77
2018-06-11T05:51:18.677Z,59.87
2018-06-11T05:52:18.714Z,59.87
2018-06-11T05:53:18.753Z,60.06
2018-06-11T05:54:18.788Z,59.77
2018-06-11T05:55:19.120Z,59.77
2018-06-11T05:56:18.874Z,59.87
2018-06-11T05:57:18.895Z,59.87
2018-06-11T05:58:18.930Z,60.25
2018-06-11T05:59:19.124Z,60.25
2018-06-11T06:00:18.998Z,60.06
2018-06-11T06:01:19.274Z,59.77
2018-06-11T06:02:19.115Z,59.77
2018-06-11T06:03:19.105Z,60.25
2018-06-11T06:04:19.221Z,60.35
2018-06-11T06:05:19.240Z,60.25
2018-06-11T06:06:19.391Z,60.09
2018-06-11T06:07:19.483Z,60.28
2018-06-11T06:08:19.285Z,59.87
2018-06-11T06:09:19.316Z,59.70
2018-06-11T06:10:19.337Z,59.90
2018-06-11T06:11:19.373Z,59.80
2018-06-11T06:12:19.404Z,59.77
2018-06-11T06:13:19.757Z,60.25
2018-06-11T06:14:19.553Z,60.38
2018-06-11T06:15:19.662Z,60.16
2018-06-11T06:16:19.551Z,60.38
2018-06-11T06:17:19.579Z,60.28
2018-06-11T06:18:19.632Z,60.19
2018-06-11T06:19:19.951Z,60.38
2018-06-11T06:20:19.687Z,60.68
2018-06-11T06:21:19.721Z,60.68
2018-06-11T06:22:19.760Z,60.87
2018-06-11T06:23:19.797Z,60.58
2018-06-11T06:24:19.824Z,60.58
2018-06-11T06:25:20.111Z,60.77
2018-06-11T06:26:19.894Z,60.87
2018-06-11T06:27:19.978Z,60.77
2018-06-11T06:28:19.971Z,61.25
2018-06-11T06:29:19.998Z,61.35
2018-06-11T06:30:20.030Z,61.45
2018-06-11T06:31:20.381Z,61.07
2018-06-11T06:32:20.129Z,61.25
2018-06-11T06:33:20.139Z,61.25
2018-06-11T06:34:20.256Z,61.35
2018-06-11T06:35:20.203Z,61.16
2018-06-11T06:36:20.254Z,61.16
2018-06-11T06:37:20.531Z,61.07
2018-06-11T06:38:20.330Z,61.45
2018-06-11T06:39:20.386Z,61.74
2018-06-11T06:40:20.415Z,61.74
2018-06-11T06:41:20.415Z,61.55
2018-06-11T06:42:20.463Z,61.74
2018-06-11T06:43:20.732Z,61.84
2018-06-11T06:44:20.524Z,61.07
2018-06-11T06:45:20.551Z,61.74
2018-06-11T06:46:20.589Z,61.55
2018-06-11T06:47:20.630Z,61.55
2018-06-11T06:48:20.661Z,61.65
2018-06-11T06:49:20.996Z,61.55
2018-06-11T06:50:20.728Z,61.55
2018-06-11T06:51:20.774Z,61.65
2018-06-11T06:52:20.798Z,61.84
2018-06-11T06:53:20.832Z,61.55
2018-06-11T06:54:20.870Z,61.65
2018-06-11T06:55:20.906Z,61.45
2018-06-11T06:56:21.203Z,61.55
2018-06-11T06:57:20.973Z,61.74
2018-06-11T06:58:21.034Z,61.55
2018-06-11T06:59:21.042Z,61.84
2018-06-11T07:00:21.081Z,61.65
2018-06-11T07:01:21.118Z,61.55
2018-06-11T07:02:21.156Z,61.65
2018-06-11T07:03:21.434Z,61.74
2018-06-11T07:04:21.219Z,61.84
2018-06-11T07:05:21.276Z,61.74
2018-06-11T07:06:21.290Z,61.84
2018-06-11T07:07:21.324Z,61.94
2018-06-11T07:08:21.360Z,61.94
2018-06-11T07:09:21.401Z,61.65
2018-06-11T07:10:21.683Z,61.74
2018-06-11T07:11:21.608Z,61.94
2018-06-11T07:12:21.520Z,62.32
2018-06-11T07:13:21.535Z,61.74
2018-06-11T07:14:21.717Z,61.74
2018-06-11T07:15:21.634Z,61.77
2018-06-11T07:16:21.643Z,62.13
2018-06-11T07:17:22.000Z,61.74
2018-06-11T07:18:21.715Z,61.65
2018-06-11T07:19:21.753Z,61.58
2018-06-11T07:20:21.791Z,61.74
2018-06-11T07:21:21.818Z,61.68
2018-06-11T07:22:21.862Z,61.97
2018-06-11T07:23:21.885Z,61.58
2018-06-11T07:24:22.221Z,61.29
2018-06-11T07:25:21.955Z,61.29
2018-06-11T07:26:21.989Z,61.19
2018-06-11T07:27:22.028Z,60.80
2018-06-11T07:28:22.059Z,60.80
2018-06-11T07:29:22.161Z,60.90
2018-06-11T07:30:22.132Z,60.61
2018-06-11T07:31:22.475Z,60.90
2018-06-11T07:32:22.202Z,60.90
2018-06-11T07:33:22.239Z,60.31
2018-06-11T07:34:22.292Z,60.41
2018-06-11T07:35:22.348Z,60.61
2018-06-11T07:36:22.357Z,60.71
2018-06-11T07:37:22.381Z,60.22
2018-06-11T07:38:22.664Z,60.31
2018-06-11T07:39:22.448Z,59.76
2018-06-11T07:40:22.518Z,59.83
2018-06-11T07:41:22.564Z,59.64
2018-06-11T07:42:22.561Z,59.92
2018-06-11T07:43:22.595Z,59.74
2018-06-11T07:44:22.624Z,59.83
2018-06-11T07:45:22.990Z,60.15
2018-06-11T07:46:22.695Z,59.86
2018-06-11T07:47:22.737Z,59.95
2018-06-11T07:48:22.860Z,59.95
2018-06-11T07:49:22.865Z,59.95
2018-06-11T07:50:23.037Z,60.05
2018-06-11T07:51:22.873Z,59.86
2018-06-11T07:52:23.207Z,59.76
2018-06-11T07:53:22.999Z,59.44
2018-06-11T07:54:22.997Z,59.38
2018-06-11T07:55:23.014Z,59.57
2018-06-11T07:56:23.062Z,59.08
2018-06-11T07:57:23.084Z,59.18
2018-06-11T07:58:23.149Z,59.28
2018-06-11T07:59:23.406Z,59.18
2018-06-11T08:00:23.192Z,58.98
2018-06-11T08:01:23.308Z,59.18
2018-06-11T08:02:23.262Z,59.08
2018-06-11T08:03:23.316Z,59.28
2018-06-11T08:04:23.339Z,58.89
2018-06-11T08:05:23.429Z,59.28
2018-06-11T08:06:23.705Z,59.18
2018-06-11T08:07:23.451Z,58.59
2018-06-11T08:08:23.476Z,58.79
2018-06-11T08:09:23.511Z,58.69
2018-06-11T08:10:23.558Z,58.59
2018-06-11T08:11:23.582Z,58.79
2018-06-11T08:12:23.624Z,58.59
2018-06-11T08:13:23.937Z,58.69
2018-06-11T08:14:23.701Z,58.69
2018-06-11T08:15:24.076Z,58.59
2018-06-11T08:16:23.764Z,58.98
2018-06-11T08:17:23.831Z,58.79
2018-06-11T08:18:23.838Z,58.50
2018-06-11T08:19:23.885Z,58.31
2018-06-11T08:20:24.203Z,58.11
2018-06-11T08:21:23.945Z,58.21
2018-06-11T08:22:24.007Z,58.31
2018-06-11T08:23:24.012Z,58.21
2018-06-11T08:24:24.067Z,58.31
2018-06-11T08:25:24.080Z,57.62
2018-06-11T08:26:24.438Z,57.62
2018-06-11T08:27:24.176Z,57.82
2018-06-11T08:28:24.192Z,57.56
2018-06-11T08:29:24.223Z,57.43
2018-06-11T08:30:24.274Z,57.07
2018-06-11T08:31:24.294Z,57.53
2018-06-11T08:32:24.650Z,56.97
2018-06-11T08:33:24.395Z,56.97
2018-06-11T08:34:24.405Z,56.68
2018-06-11T08:35:24.444Z,56.59
2018-06-11T08:36:24.473Z,56.97
2018-06-11T08:37:24.508Z,56.97
2018-06-11T08:38:24.795Z,56.87
2018-06-11T08:39:24.694Z,56.49
2018-06-11T08:40:24.626Z,56.68
2018-06-11T08:41:24.657Z,56.49
2018-06-11T08:42:24.733Z,56.49
2018-06-11T08:43:24.726Z,56.39
2018-06-11T08:44:25.022Z,56.49
2018-06-11T08:45:24.996Z,56.49
2018-06-11T08:46:24.835Z,56.20
2018-06-11T08:47:24.880Z,56.39
2018-06-11T08:48:24.901Z,56.00
2018-06-11T08:49:24.948Z,55.90
2018-06-11T08:50:25.229Z,56.10
2018-06-11T08:51:25.014Z,56.29
2018-06-11T08:52:25.051Z,56.10
2018-06-11T08:53:25.087Z,55.71
2018-06-11T08:54:25.241Z,56.00
2018-06-11T08:55:25.167Z,55.80
2018-06-11T08:56:25.544Z,55.61
2018-06-11T08:57:25.225Z,55.90
2018-06-11T08:58:25.267Z,55.80
2018-06-11T08:59:25.303Z,56.10
2018-06-11T09:00:25.333Z,55.71
2018-06-11T09:01:25.375Z,55.32
2018-06-11T09:02:25.716Z,55.61
2018-06-11T09:03:25.446Z,55.61
2018-06-11T09:04:25.476Z,55.41
2018-06-11T09:05:25.520Z,55.51
2018-06-11T09:06:25.556Z,55.71
2018-06-11T09:07:25.591Z,55.71
2018-06-11T09:08:25.928Z,55.54
2018-06-11T09:09:25.660Z,55.51
2018-06-11T09:10:25.699Z,55.83
2018-06-11T09:11:25.829Z,55.74
2018-06-11T09:12:25.768Z,55.64
2018-06-11T09:13:25.802Z,55.64
2018-06-11T09:14:26.088Z,55.35
2018-06-11T09:15:25.881Z,55.35
2018-06-11T09:16:25.916Z,55.44
2018-06-11T09:17:25.954Z,55.54
2018-06-11T09:18:26.061Z,55.35
2018-06-11T09:19:26.021Z,54.86
2018-06-11T09:20:26.361Z,55.35
2018-06-11T09:21:26.099Z,55.25
2018-06-11T09:22:26.135Z,54.96
2018-06-11T09:23:26.167Z,54.96
2018-06-11T09:24:26.388Z,54.96
2018-06-11T09:25:26.345Z,55.25
2018-06-11T09:26:27.867Z,55.15
2018-06-11T09:27:26.373Z,55.25
2018-06-11T09:28:26.345Z,54.66
2018-06-11T09:29:26.598Z,54.66
2018-06-11T09:30:26.432Z,55.15
2018-06-11T09:31:26.621Z,54.76
2018-06-11T09:32:26.809Z,54.66
2018-06-11T09:33:26.526Z,54.66
2018-06-11T09:34:26.566Z,54.66
2018-06-11T09:35:26.604Z,55.15
2018-06-11T09:36:26.638Z,55.05
2018-06-11T09:37:26.806Z,54.66
2018-06-11T09:38:26.960Z,55.15
2018-06-11T09:39:26.747Z,54.86
2018-06-11T09:40:27.048Z,54.96
2018-06-11T09:41:26.921Z,54.86
2018-06-11T09:42:26.851Z,54.76
2018-06-11T09:43:26.888Z,55.05
2018-06-11T09:44:26.924Z,55.15
2018-06-11T09:45:27.273Z,55.05
2018-06-11T09:46:27.001Z,55.05
2018-06-11T09:47:27.032Z,54.76
2018-06-11T09:48:27.070Z,54.96
2018-06-11T09:49:27.115Z,54.86
2018-06-11T09:50:27.142Z,54.57
2018-06-11T09:51:27.183Z,54.76
2018-06-11T09:52:27.525Z,54.96
2018-06-11T09:53:27.263Z,54.76
2018-06-11T09:54:27.289Z,54.96
2018-06-11T09:55:27.322Z,54.66
2018-06-11T09:56:27.664Z,54.86
2018-06-11T09:57:27.400Z,54.66
2018-06-11T09:58:27.465Z,55.05
2018-06-11T09:59:27.721Z,54.66
2018-06-11T10:00:27.505Z,54.86
2018-06-11T10:01:27.543Z,54.86
2018-06-11T10:02:27.579Z,54.86
2018-06-11T10:03:27.614Z,54.96
2018-06-11T10:04:27.650Z,54.96
2018-06-11T10:05:27.687Z,54.86
2018-06-11T10:06:27.975Z,54.96
2018-06-11T10:07:27.758Z,54.96
2018-06-11T10:08:27.798Z,54.86
2018-06-11T10:09:27.836Z,54.86
2018-06-11T10:10:27.870Z,54.86
2018-06-11T10:11:27.926Z,54.86
2018-06-11T10:12:27.967Z,54.96
2018-06-11T10:13:28.303Z,54.96
2018-06-11T10:14:28.015Z,54.96
2018-06-11T10:15:28.063Z,54.86
2018-06-11T10:16:28.093Z,54.96
2018-06-11T10:17:28.127Z,54.96
2018-06-11T10:18:28.163Z,54.66
2018-06-11T10:19:28.198Z,54.76
2018-06-11T10:20:28.545Z,54.86
2018-06-11T10:21:28.303Z,54.96
2018-06-11T10:22:28.315Z,54.86
2018-06-11T10:23:28.341Z,55.05
2018-06-11T10:24:28.378Z,54.96
2018-06-11T10:25:28.411Z,54.96
2018-06-11T10:26:28.448Z,54.66
2018-06-11T10:27:28.484Z,54.96
2018-06-11T10:28:28.519Z,54.96
2018-06-11T10:29:28.559Z,54.86
2018-06-11T10:30:28.619Z,54.96
2018-06-11T10:31:28.636Z,54.96
2018-06-11T10:32:28.684Z,54.96
2018-06-11T10:33:29.009Z,54.96
2018-06-11T10:34:28.749Z,54.86
2018-06-11T10:35:28.774Z,54.96
2018-06-11T10:36:28.811Z,55.05
2018-06-11T10:37:28.857Z,54.96
2018-06-11T10:38:28.884Z,55.05
2018-06-11T10:39:28.931Z,54.96
2018-06-11T10:40:29.206Z,55.25
2018-06-11T10:41:28.995Z,55.15
2018-06-11T10:42:29.028Z,54.47
2018-06-11T10:43:29.096Z,54.47
2018-06-11T10:44:29.118Z,54.57
2018-06-11T10:45:29.140Z,54.60
2018-06-11T10:46:29.225Z,54.57
2018-06-11T10:47:29.213Z,54.66
2018-06-11T10:48:29.258Z,54.47
2018-06-11T10:49:29.284Z,54.47
2018-06-11T10:50:29.322Z,54.38
2018-06-11T10:51:29.366Z,54.38
2018-06-11T10:52:29.391Z,54.38
2018-06-11T10:53:29.732Z,54.38
2018-06-11T10:54:29.482Z,54.50
2018-06-11T10:55:29.502Z,54.50
2018-06-11T10:56:29.540Z,54.47
2018-06-11T10:57:29.574Z,54.50
2018-06-11T10:58:29.633Z,54.30
2018-06-11T10:59:29.647Z,54.30
2018-06-11T11:00:29.935Z,54.47
2018-06-11T11:01:29.721Z,54.50
2018-06-11T11:02:29.759Z,54.69
2018-06-11T11:03:29.791Z,54.40
2018-06-11T11:04:29.841Z,54.50
2018-06-11T11:05:29.882Z,54.50
2018-06-11T11:06:29.901Z,54.50
2018-06-11T11:07:30.250Z,54.30
2018-06-11T11:08:29.976Z,54.50
2018-06-11T11:09:30.017Z,54.50
2018-06-11T11:10:30.052Z,54.60
2018-06-11T11:11:30.098Z,54.60
2018-06-11T11:12:30.124Z,54.50
2018-06-11T11:13:30.460Z,54.50
2018-06-11T11:14:30.193Z,54.40
2018-06-11T11:15:30.231Z,54.60
2018-06-11T11:16:30.277Z,54.40
2018-06-11T11:17:30.305Z,54.40
2018-06-11T11:18:30.340Z,54.69
2018-06-11T11:19:30.678Z,54.69
2018-06-11T11:20:30.413Z,54.30
2018-06-11T11:21:30.456Z,54.50
2018-06-11T11:22:30.538Z,54.50
2018-06-11T11:23:30.524Z,54.69
2018-06-11T11:24:30.559Z,54.40
2018-06-11T11:25:30.844Z,54.60
2018-06-11T11:26:30.683Z,54.40
2018-06-11T11:27:30.667Z,54.40
2018-06-11T11:28:30.701Z,54.50
2018-06-11T11:29:30.745Z,54.50
2018-06-11T11:30:30.774Z,54.69
2018-06-11T11:31:31.099Z,54.69
2018-06-11T11:32:30.851Z,54.60
2018-06-11T11:33:31.241Z,54.60
2018-06-11T11:34:30.934Z,54.69
2018-06-11T11:35:30.964Z,54.69
2018-06-11T11:36:30.999Z,54.60
2018-06-11T11:37:31.331Z,54.50
2018-06-11T11:38:31.071Z,54.60
2018-06-11T11:39:31.105Z,54.69
2018-06-11T11:40:31.139Z,54.69
2018-06-11T11:41:31.177Z,54.50
2018-06-11T11:42:31.217Z,54.60
2018-06-11T11:43:31.254Z,54.30
2018-06-11T11:44:31.288Z,54.01
2018-06-11T11:45:31.323Z,54.30
2018-06-11T11:46:31.362Z,53.91
2018-06-11T11:47:31.406Z,54.11
2018-06-11T11:48:31.433Z,53.91
2018-06-11T11:49:31.768Z,54.21
2018-06-11T11:50:31.510Z,54.21
2018-06-11T11:51:31.545Z,54.21
2018-06-11T11:52:31.577Z,54.21
2018-06-11T11:53:31.614Z,54.21
2018-06-11T11:54:31.691Z,54.11
2018-06-11T11:55:31.991Z,54.21
2018-06-11T11:56:31.722Z,54.21
2018-06-11T11:57:31.766Z,54.11
2018-06-11T11:58:31.795Z,54.11
2018-06-11T11:59:31.833Z,54.21
2018-06-11T12:00:31.884Z,54.30
2018-06-11T12:01:32.159Z,54.11
2018-06-11T12:02:32.345Z,54.30
2018-06-11T12:03:31.980Z,54.30
2018-06-11T12:04:32.016Z,54.11
2018-06-11T12:05:32.052Z,54.30
2018-06-11T12:06:32.091Z,54.30
2018-06-11T12:07:32.530Z,54.21
2018-06-11T12:08:32.165Z,54.11
2018-06-11T12:09:32.211Z,54.30
2018-06-11T12:10:32.236Z,54.01
2018-06-11T12:11:32.273Z,54.11
2018-06-11T12:12:32.307Z,54.01
2018-06-11T12:13:32.597Z,54.11
2018-06-11T12:14:32.392Z,54.01
2018-06-11T12:15:32.415Z,54.30
2018-06-11T12:16:32.456Z,54.30
2018-06-11T12:17:32.492Z,54.21
2018-06-11T12:18:32.579Z,54.30
2018-06-11T12:19:32.877Z,54.43
2018-06-11T12:20:32.599Z,54.50
2018-06-11T12:21:32.653Z,54.23
2018-06-11T12:22:32.672Z,54.23
2018-06-11T12:23:32.718Z,54.23
2018-06-11T12:24:32.744Z,53.72
2018-06-11T12:25:33.088Z,53.94
2018-06-11T12:26:32.818Z,53.85
2018-06-11T12:27:32.853Z,53.94
2018-06-11T12:28:32.904Z,53.85
2018-06-11T12:29:32.930Z,53.85
2018-06-11T12:30:32.967Z,53.75
2018-06-11T12:31:33.001Z,53.45
2018-06-11T12:32:33.351Z,53.45
2018-06-11T12:33:33.180Z,53.55
2018-06-11T12:34:33.113Z,53.26
2018-06-11T12:35:33.153Z,53.55
2018-06-11T12:36:33.188Z,53.45
2018-06-11T12:37:33.225Z,53.45
2018-06-11T12:38:33.259Z,53.45
2018-06-11T12:39:33.552Z,53.65
2018-06-11T12:40:33.333Z,53.75
2018-06-11T12:41:33.441Z,53.55
2018-06-11T12:42:33.409Z,53.65
2018-06-11T12:43:33.454Z,53.36
2018-06-11T12:44:33.482Z,53.26
2018-06-11T12:45:33.519Z,52.87
2018-06-11T12:46:33.871Z,53.06
2018-06-11T12:47:33.604Z,52.97
2018-06-11T12:48:33.736Z,52.97
2018-06-11T12:49:33.668Z,53.26
2018-06-11T12:50:33.709Z,53.55
2018-06-11T12:51:33.755Z,53.26
2018-06-11T12:52:33.777Z,53.19